Time;durP1;ratioP1;P1;durP2;ratioP2;P2;SDS_P1;SDS_P2;PMS_P1;PMS_P2;Temp;Humidity;BMP_temperature;BMP_pressure;BME280_temperature;BME280_humidity;BME280_pressure;Samples;Min_cycle;Max_cycle;Signal;HPM_P1;HPM_P2
2022/02/21 00:02:03;;;;;;;;;4.00;4.00;;;;;11.40;100.00;100687.69;5015005;28;45263;-83
2022/02/21 00:04:28;;;;;;;;;2.25;2.00;;;;;11.40;100.00;100647.94;5013813;28;45465;-82
2022/02/21 00:06:54;;;;;;;;;10.25;5.25;;;;;11.36;100.00;100646.03;4995073;28;46349;-83
2022/02/21 00:09:19;;;;;;;;;12.00;5.00;;;;;11.35;100.00;100647.75;4995215;28;45413;-82
2022/02/21 00:11:45;;;;;;;;;3.00;3.00;;;;;11.35;100.00;100689.22;4996864;27;45221;-83
2022/02/21 00:14:11;;;;;;;;;3.00;3.00;;;;;11.31;100.00;100692.50;4997190;28;45529;-82
2022/02/21 00:16:36;;;;;;;;;4.50;3.00;;;;;11.31;100.00;100674.38;4996766;27;45941;-84
2022/02/21 00:19:02;;;;;;;;;5.50;4.00;;;;;11.24;99.97;100721.63;4997906;27;45307;-83
2022/02/21 00:21:29;;;;;;;;;5.50;2.50;;;;;11.22;95.12;100723.25;4995259;28;45352;-83
2022/02/21 00:23:56;;;;;;;;;5.25;2.00;;;;;11.22;94.84;100723.25;4995388;27;45571;-83
2022/02/21 00:26:22;;;;;;;;;3.50;2.75;;;;;11.16;97.08;100734.25;4995397;28;45229;-83
2022/02/21 00:28:48;;;;;;;;;3.00;2.00;;;;;11.03;100.00;100724.19;4977448;28;45398;-83
2022/02/21 00:31:14;;;;;;;;;5.00;0.75;;;;;10.98;98.54;100745.63;4994861;28;45511;-83
2022/02/21 00:33:40;;;;;;;;;2.50;2.00;;;;;10.87;94.39;100772.78;4997819;27;45411;-83
2022/02/21 00:36:06;;;;;;;;;2.75;2.00;;;;;10.75;88.63;100738.59;5002180;27;48042;-84
2022/02/21 00:38:32;;;;;;;;;4.00;0.00;;;;;10.72;90.42;100751.38;5098944;27;45346;-84
2022/02/21 00:40:58;;;;;;;;;5.75;2.75;;;;;10.69;86.51;100746.97;5100171;27;45435;-83
2022/02/21 00:43:24;;;;;;;;;1.75;0.75;;;;;10.65;81.23;100760.59;5027300;27;45555;-83
2022/02/21 00:45:50;;;;;;;;;2.75;0.75;;;;;10.57;82.26;100751.63;4997269;27;46267;-83
2022/02/21 00:48:16;;;;;;;;;1.00;1.00;;;;;10.47;80.42;100782.28;4975730;28;45568;-83
2022/02/21 00:50:42;;;;;;;;;0.25;0.00;;;;;10.42;86.79;100813.94;4977084;27;45387;-84
2022/02/21 00:53:08;;;;;;;;;3.50;0.00;;;;;10.32;96.96;100826.44;4993741;28;45345;-83
2022/02/21 00:55:36;;;;;;;;;3.75;1.00;;;;;10.15;100.00;100804.94;4975323;28;46698;-83
2022/02/21 00:58:05;;;;;;;;;4.50;1.00;;;;;9.98;100.00;100863.66;4992863;27;45946;-84
2022/02/21 01:00:32;;;;;;;;;0.00;0.00;;;;;9.78;100.00;100890.25;5021157;27;45573;-84
2022/02/21 01:02:59;;;;;;;;;2.00;1.00;;;;;9.36;100.00;100881.31;5098063;27;45579;-84
2022/02/21 01:05:25;;;;;;;;;0.00;0.00;;;;;9.07;100.00;100857.44;5097941;27;46441;-84
2022/02/21 01:07:51;;;;;;;;;0.00;0.00;;;;;8.88;100.00;100829.81;5066374;27;45716;-83
2022/02/21 01:10:17;;;;;;;;;3.25;1.75;;;;;8.84;100.00;100822.69;4996633;28;45369;-84
2022/02/21 01:12:42;;;;;;;;;1.00;1.00;;;;;8.85;100.00;100811.56;4994762;28;45354;-84
2022/02/21 01:15:10;;;;;;;;;3.00;1.75;;;;;8.85;100.00;100842.53;4993902;28;45625;-84
2022/02/21 01:17:36;;;;;;;;;1.00;0.75;;;;;8.85;100.00;100802.94;4994237;28;45387;-84
2022/02/21 01:20:06;;;;;;;;;0.50;0.50;;;;;8.89;100.00;100823.84;4993973;28;45354;-84
2022/02/21 01:22:32;;;;;;;;;2.75;1.00;;;;;8.87;100.00;100815.13;5023912;27;45531;-84
2022/02/21 01:24:57;;;;;;;;;0.00;0.00;;;;;8.85;100.00;100834.81;5078551;27;47477;-84
2022/02/21 01:27:23;;;;;;;;;1.50;0.50;;;;;8.88;100.00;100826.31;5097718;27;45357;-84
2022/02/21 01:29:49;;;;;;;;;0.25;0.25;;;;;8.90;100.00;100827.28;5097516;27;45333;-84
2022/02/21 01:32:14;;;;;;;;;1.50;1.00;;;;;9.02;100.00;100842.53;5097728;27;45971;-88
2022/02/21 01:34:40;;;;;;;;;1.00;1.00;;;;;9.05;100.00;100853.91;5098211;27;46060;-83
2022/02/21 01:37:06;;;;;;;;;0.25;0.00;;;;;9.10;100.00;100986.75;5088987;27;45514;-84
2022/02/21 01:39:32;;;;;;;;;0.00;0.00;;;;;8.81;100.00;100944.78;4977803;28;45348;-84
2022/02/21 01:41:57;;;;;;;;;1.75;1.00;;;;;8.47;100.00;100891.31;4993793;28;45629;-84
2022/02/21 01:44:38;;;;;;;;;0.00;0.00;;;;;8.23;100.00;100871.88;4976164;28;47178;-83
2022/02/21 01:47:10;;;;;;;;;0.50;0.00;;;;;8.12;100.00;100860.97;4993587;28;45331;-84
2022/02/21 01:49:36;;;;;;;;;0.00;0.00;;;;;8.11;100.00;100860.06;4993993;28;45258;-83
2022/02/21 01:52:03;;;;;;;;;0.00;0.00;;;;;8.10;100.00;100847.97;5067185;27;45650;-84
2022/02/21 01:54:30;;;;;;;;;0.25;0.25;;;;;8.20;100.00;100863.19;5095793;27;46010;-84
2022/02/21 01:56:55;;;;;;;;;0.75;0.50;;;;;8.24;100.00;100841.03;5078124;27;45326;-83
2022/02/21 01:59:21;;;;;;;;;4.00;1.00;;;;;8.34;100.00;100848.47;5078942;27;45355;-83
2022/02/21 02:01:48;;;;;;;;;1.25;0.00;;;;;8.41;100.00;100849.69;5007319;27;45268;-83
2022/02/21 02:04:14;;;;;;;;;1.25;1.00;;;;;8.49;100.00;100843.28;4982928;28;47680;-83
2022/02/21 02:06:39;;;;;;;;;0.50;0.25;;;;;8.57;100.00;100845.34;4997329;28;45259;-83
2022/02/21 02:09:07;;;;;;;;;1.00;1.00;;;;;8.60;100.00;100827.47;4996679;28;45315;-83
2022/02/21 02:11:35;;;;;;;;;1.00;0.50;;;;;8.65;100.00;100839.81;4979614;28;45338;-83
2022/02/21 02:14:00;;;;;;;;;1.00;1.00;;;;;8.65;100.00;100824.31;4978813;28;46871;-84
2022/02/21 02:16:26;;;;;;;;;1.00;0.75;;;;;8.74;100.00;100815.28;4996992;27;45381;-84
2022/02/21 02:18:52;;;;;;;;;3.00;2.00;;;;;8.79;100.00;100816.44;4996692;28;45396;-84
2022/02/21 02:21:29;;;;;;;;;2.00;1.00;;;;;8.89;100.00;100821.25;4996977;27;45253;-85
2022/02/21 02:23:56;;;;;;;;;1.00;1.00;;;;;8.95;100.00;100833.59;5009068;27;45412;-84
2022/02/21 02:26:22;;;;;;;;;6.25;2.75;;;;;8.96;100.00;100831.09;5082046;27;45385;-84
2022/02/21 02:28:53;;;;;;;;;2.50;2.00;;;;;8.97;100.00;100817.38;5100594;27;45378;-83
2022/02/21 02:31:19;;;;;;;;;2.75;2.00;;;;;9.04;100.00;100821.16;5104568;27;45204;-84
2022/02/21 02:33:46;;;;;;;;;5.50;2.25;;;;;9.04;100.00;100820.25;5103353;27;45443;-84
2022/02/21 02:36:11;;;;;;;;;3.50;2.00;;;;;9.05;100.00;100830.69;5016826;28;45616;-84
2022/02/21 02:38:41;;;;;;;;;3.00;1.75;;;;;9.00;100.00;100819.22;5003469;27;46990;-84
2022/02/21 02:41:10;;;;;;;;;4.00;2.50;;;;;9.07;100.00;100833.31;4997090;28;45327;-84
2022/02/21 02:43:37;;;;;;;;;6.50;3.00;;;;;9.08;100.00;100828.22;4996488;27;46491;-85
2022/02/21 02:46:03;;;;;;;;;5.50;2.50;;;;;9.06;100.00;100827.28;4996553;27;45351;-87
2022/02/21 02:48:29;;;;;;;;;2.75;2.75;;;;;9.07;100.00;100831.63;4997049;27;45334;-85
2022/02/21 02:50:55;;;;;;;;;3.50;2.00;;;;;9.09;100.00;100834.28;4997937;28;45793;-84
2022/02/21 02:53:21;;;;;;;;;8.00;4.00;;;;;9.08;100.00;100833.41;5004230;27;46011;-88
2022/02/21 02:55:46;;;;;;;;;8.75;2.50;;;;;9.10;100.00;100836.06;5033250;27;45271;-88
2022/02/21 02:58:12;;;;;;;;;5.25;2.25;;;;;9.10;100.00;100838.66;4999117;27;45433;-86
2022/02/21 03:00:37;;;;;;;;;5.75;3.00;;;;;9.09;100.00;100836.88;5002563;27;45629;-86
2022/02/21 03:03:03;;;;;;;;;6.00;2.25;;;;;9.14;100.00;100835.41;4979681;28;46852;-84
2022/02/21 03:05:29;;;;;;;;;3.50;3.50;;;;;9.06;100.00;100835.03;4994952;28;45474;-84
2022/02/21 03:07:54;;;;;;;;;9.00;3.25;;;;;9.12;100.00;100826.72;4997061;27;45374;-83
2022/02/21 03:10:20;;;;;;;;;5.00;2.50;;;;;9.11;100.00;100823.22;4978258;28;45256;-83
2022/02/21 03:12:46;;;;;;;;;5.00;3.00;;;;;9.17;100.00;100817.50;4990711;27;47550;-83
2022/02/21 03:15:11;;;;;;;;;8.75;3.00;;;;;9.13;100.00;100815.53;5099504;27;45374;-83
2022/02/21 03:17:37;;;;;;;;;5.50;3.00;;;;;9.16;100.00;100814.84;5081280;27;45452;-84
2022/02/21 03:20:03;;;;;;;;;4.25;1.75;;;;;9.14;100.00;100825.06;5072581;27;45483;-83
2022/02/21 03:22:29;;;;;;;;;6.75;5.00;;;;;9.07;100.00;100835.91;4977539;28;48084;-84
2022/02/21 03:24:56;;;;;;;;;2.00;2.00;;;;;9.04;100.00;100843.50;5003322;27;45529;-84
2022/02/21 03:27:23;;;;;;;;;9.50;6.25;;;;;9.04;100.00;100839.22;4980706;28;45464;-84
2022/02/21 03:29:49;;;;;;;;;5.00;2.00;;;;;9.00;100.00;100839.88;5000018;27;45552;-84
2022/02/21 03:32:15;;;;;;;;;7.50;4.00;;;;;8.99;100.00;100832.94;4994747;28;45428;-84
2022/02/21 03:34:40;;;;;;;;;7.25;3.00;;;;;8.99;100.00;100820.00;4977216;28;45272;-84
2022/02/21 03:37:06;;;;;;;;;8.50;2.25;;;;;8.96;100.00;100833.66;4995464;27;45402;-83
2022/02/21 03:39:31;;;;;;;;;2.25;2.00;;;;;9.01;99.46;100845.94;4995756;28;45609;-83
2022/02/21 03:41:57;;;;;;;;;3.75;3.00;;;;;8.97;97.79;100834.53;4994156;28;46212;-83
2022/02/21 03:44:22;;;;;;;;;6.50;4.00;;;;;8.99;99.35;100835.50;4995423;27;45425;-83
2022/02/21 03:46:48;;;;;;;;;4.00;2.00;;;;;8.98;99.28;100838.91;4995158;28;45382;-85
2022/02/21 03:49:14;;;;;;;;;3.75;2.75;;;;;8.97;99.86;100834.53;4977265;28;45682;-85
2022/02/21 03:51:41;;;;;;;;;2.50;2.50;;;;;8.90;100.00;100832.47;4983397;27;47159;-84
2022/02/21 03:54:07;;;;;;;;;5.00;1.25;;;;;8.94;100.00;100855.94;4997067;28;45877;-84
2022/02/21 03:56:34;;;;;;;;;3.00;2.25;;;;;8.93;100.00;100871.34;4982937;28;45277;-83
2022/02/21 03:58:59;;;;;;;;;5.00;3.00;;;;;8.86;100.00;100862.41;5045411;27;45535;-83
2022/02/21 04:01:25;;;;;;;;;2.00;1.50;;;;;8.83;100.00;100852.81;5059423;27;45924;-84
2022/02/21 04:03:50;;;;;;;;;2.00;1.00;;;;;8.80;100.00;100856.94;5001220;27;45418;-87
2022/02/21 04:06:16;;;;;;;;;2.00;1.00;;;;;8.71;100.00;100856.41;4998715;28;45233;-88
2022/02/21 04:08:42;;;;;;;;;4.50;2.75;;;;;8.63;100.00;100848.28;4995827;27;45601;-87
2022/02/21 04:11:08;;;;;;;;;7.50;2.00;;;;;8.62;100.00;100839.63;4995395;28;46034;-87
2022/02/21 04:13:33;;;;;;;;;2.50;1.00;;;;;8.63;100.00;100864.66;4976985;28;45617;-84
2022/02/21 04:15:59;;;;;;;;;2.25;1.75;;;;;8.61;100.00;100866.25;4994786;28;45422;-84
2022/02/21 04:18:25;;;;;;;;;2.25;1.25;;;;;8.60;100.00;100879.97;4997309;27;45445;-83
2022/02/21 04:20:50;;;;;;;;;2.00;2.00;;;;;8.61;100.00;100870.53;4998406;27;46254;-83
2022/02/21 04:23:16;;;;;;;;;1.75;1.00;;;;;8.62;100.00;100875.78;4998902;27;45326;-84
2022/02/21 04:25:42;;;;;;;;;5.50;2.00;;;;;8.63;100.00;100881.84;4979319;28;45326;-84
2022/02/21 04:28:08;;;;;;;;;9.25;2.50;;;;;8.57;100.00;100859.16;4995461;28;45327;-82
2022/02/21 04:30:34;;;;;;;;;1.00;1.00;;;;;8.56;100.00;100865.13;4994760;28;45351;-84
2022/02/21 04:33:00;;;;;;;;;3.25;2.75;;;;;8.52;100.00;100853.75;4976879;28;45384;-84
2022/02/21 04:35:26;;;;;;;;;3.00;1.00;;;;;8.47;100.00;100870.69;5000179;27;45212;-83
2022/02/21 04:37:53;;;;;;;;;2.25;2.00;;;;;8.50;100.00;100844.16;5098363;27;45318;-84
2022/02/21 04:40:23;;;;;;;;;3.00;2.00;;;;;8.52;100.00;100843.44;5097600;27;45325;-84
2022/02/21 04:42:50;;;;;;;;;2.00;1.00;;;;;8.58;100.00;100860.94;5099540;27;45795;-83
2022/02/21 04:45:16;;;;;;;;;2.50;2.00;;;;;8.55;100.00;100853.03;5097892;27;45209;-84
2022/02/21 04:47:42;;;;;;;;;2.50;2.50;;;;;8.59;100.00;100854.94;5098586;27;45295;-84
2022/02/21 04:50:09;;;;;;;;;4.25;2.00;;;;;8.60;100.00;100864.47;5100900;27;46233;-84
2022/02/21 04:52:35;;;;;;;;;4.00;2.00;;;;;8.60;100.00;100851.56;5003353;27;45387;-84
2022/02/21 04:55:03;;;;;;;;;4.50;2.00;;;;;8.65;100.00;100844.97;4978467;28;45374;-84
2022/02/21 04:57:29;;;;;;;;;3.75;1.00;;;;;8.67;100.00;100848.53;5051893;27;45319;-85
2022/02/21 04:59:55;;;;;;;;;3.00;1.00;;;;;8.68;100.00;100828.75;5098370;27;46303;-84
2022/02/21 05:02:20;;;;;;;;;2.50;1.00;;;;;8.78;100.00;100858.53;5097879;27;45314;-84
2022/02/21 05:04:46;;;;;;;;;2.25;2.25;;;;;8.80;100.00;100844.88;5006432;27;45177;-84
2022/02/21 05:07:12;;;;;;;;;2.00;1.50;;;;;8.79;100.00;100842.25;5004736;27;45318;-86
2022/02/21 05:09:37;;;;;;;;;3.00;1.00;;;;;8.78;100.00;100843.03;4986918;28;45724;-86
2022/02/21 05:12:03;;;;;;;;;7.25;3.75;;;;;8.82;100.00;100852.69;5045841;27;45326;-85
2022/02/21 05:14:29;;;;;;;;;2.25;1.00;;;;;8.87;100.00;100845.19;5080966;27;45365;-84
2022/02/21 05:16:54;;;;;;;;;7.25;2.25;;;;;8.81;100.00;100846.66;5098819;27;45534;-84
2022/02/21 05:19:20;;;;;;;;;3.75;1.75;;;;;8.86;100.00;100858.91;5098245;27;46153;-84
2022/02/21 05:21:46;;;;;;;;;4.75;1.75;;;;;8.85;100.00;100863.19;5099241;27;45322;-83
2022/02/21 05:24:11;;;;;;;;;2.00;1.25;;;;;8.81;100.00;100871.56;5078988;27;45455;-83
2022/02/21 05:26:37;;;;;;;;;4.25;1.50;;;;;8.79;100.00;100848.28;5058411;27;45441;-83
2022/02/21 05:29:02;;;;;;;;;2.00;1.00;;;;;8.76;100.00;100848.09;4986362;28;47757;-83
2022/02/21 05:31:29;;;;;;;;;1.00;1.00;;;;;8.72;100.00;100847.88;5001851;28;45338;-83
2022/02/21 05:33:55;;;;;;;;;1.00;1.00;;;;;8.70;100.00;100852.97;5010417;27;45180;-83
2022/02/21 05:36:21;;;;;;;;;4.00;2.50;;;;;8.70;100.00;100859.78;4996600;28;45228;-83
2022/02/21 05:38:46;;;;;;;;;4.75;1.25;;;;;8.67;100.00;100840.78;4994951;28;46137;-83
2022/02/21 05:41:12;;;;;;;;;3.00;1.00;;;;;8.67;100.00;100848.53;4995006;28;45383;-83
2022/02/21 05:43:38;;;;;;;;;5.00;0.00;;;;;8.61;100.00;100883.44;4993406;28;45347;-84
2022/02/21 05:46:04;;;;;;;;;1.50;1.00;;;;;8.53;100.00;100864.97;4994554;28;45378;-82
2022/02/21 05:48:30;;;;;;;;;1.75;0.75;;;;;8.37;100.00;100864.09;4980119;28;46568;-83
2022/02/21 05:50:56;;;;;;;;;2.50;2.00;;;;;8.31;100.00;100834.50;4977808;28;45489;-84
2022/02/21 05:53:22;;;;;;;;;1.00;0.25;;;;;8.21;100.00;100843.44;4974428;28;45379;-83
2022/02/21 05:55:47;;;;;;;;;1.50;1.00;;;;;8.18;100.00;100851.88;5058489;27;45542;-84
2022/02/21 05:58:13;;;;;;;;;0.00;0.00;;;;;8.08;100.00;100848.72;5044290;27;46919;-84
2022/02/21 06:00:43;;;;;;;;;1.25;1.00;;;;;8.03;100.00;100862.25;4976144;28;45296;-83
2022/02/21 06:03:09;;;;;;;;;1.50;0.25;;;;;7.99;100.00;100859.41;4967129;28;45514;-83
2022/02/21 06:05:34;;;;;;;;;0.00;0.00;;;;;8.05;100.00;100870.06;4993587;28;45314;-82
2022/02/21 06:08:00;;;;;;;;;2.00;0.75;;;;;8.05;100.00;100883.81;4992730;28;45937;-83
2022/02/21 06:10:26;;;;;;;;;0.00;0.00;;;;;7.99;100.00;100878.34;4993404;28;45888;-83
2022/02/21 06:12:51;;;;;;;;;3.25;0.75;;;;;8.02;100.00;100899.16;5032796;27;45463;-84
2022/02/21 06:15:17;;;;;;;;;0.50;0.00;;;;;7.94;100.00;100882.31;5102492;27;45344;-84
2022/02/21 06:17:42;;;;;;;;;2.75;0.75;;;;;7.99;100.00;100882.63;5101317;27;45964;-83
2022/02/21 06:20:09;;;;;;;;;0.75;0.00;;;;;8.00;100.00;100884.38;5036019;27;45227;-84
2022/02/21 06:22:34;;;;;;;;;2.50;1.50;;;;;8.01;100.00;100894.78;4993206;27;45242;-86
2022/02/21 06:25:00;;;;;;;;;2.50;0.00;;;;;8.04;100.00;100894.94;4993682;28;45549;-84
2022/02/21 06:27:27;;;;;;;;;2.00;0.75;;;;;8.01;100.00;100879.31;4995301;27;45667;-84
2022/02/21 06:29:53;;;;;;;;;2.00;0.00;;;;;8.02;100.00;100893.09;4996954;28;45832;-84
2022/02/21 06:32:19;;;;;;;;;0.50;0.50;;;;;8.05;100.00;100893.25;5001718;27;45387;-83
2022/02/21 06:34:48;;;;;;;;;3.00;1.00;;;;;8.04;100.00;100888.91;4993514;28;45311;-84
2022/02/21 06:37:14;;;;;;;;;1.75;0.75;;;;;7.99;100.00;100887.78;4992698;28;45259;-85
2022/02/21 06:39:40;;;;;;;;;3.25;1.75;;;;;8.06;100.00;100911.38;4974009;28;46098;-85
2022/02/21 06:42:05;;;;;;;;;2.25;0.00;;;;;8.05;100.00;100919.06;4990622;27;45524;-86
2022/02/21 06:44:31;;;;;;;;;1.00;1.00;;;;;8.01;100.00;100910.25;4980459;28;45402;-86
2022/02/21 06:46:57;;;;;;;;;2.50;1.00;;;;;7.98;100.00;100916.94;4994805;28;45898;-83
2022/02/21 06:49:22;;;;;;;;;1.75;0.75;;;;;7.95;100.00;100901.28;5001411;27;45268;-88
2022/02/21 06:51:48;;;;;;;;;0.00;0.00;;;;;7.95;100.00;100901.28;4998189;27;45321;-88
2022/02/21 06:54:14;;;;;;;;;4.00;1.75;;;;;7.95;100.00;100922.78;4979948;28;45407;-88
2022/02/21 06:56:40;;;;;;;;;1.50;1.50;;;;;8.02;100.00;100935.25;5014541;27;47046;-87
2022/02/21 06:59:06;;;;;;;;;1.25;0.00;;;;;7.96;100.00;100928.84;5106247;27;45686;-84
2022/02/21 07:01:31;;;;;;;;;0.00;0.00;;;;;7.96;100.00;100934.88;5082579;27;45456;-85
2022/02/21 07:04:00;;;;;;;;;1.75;1.00;;;;;7.86;100.00;100948.03;5100481;27;45490;-86
2022/02/21 07:06:26;;;;;;;;;1.50;0.75;;;;;7.97;100.00;100939.22;5038558;27;46308;-81
2022/02/21 07:08:51;;;;;;;;;2.00;1.00;;;;;7.95;100.00;100930.50;4994387;28;45391;-81
2022/02/21 07:11:17;;;;;;;;;2.25;1.00;;;;;7.96;100.00;100944.31;4996464;27;45380;-81
2022/02/21 07:13:43;;;;;;;;;0.25;0.25;;;;;7.98;100.00;100948.75;4998716;27;45412;-79
2022/02/21 07:16:08;;;;;;;;;3.00;1.00;;;;;7.93;100.00;100950.19;4996524;28;45516;-83
2022/02/21 07:18:37;;;;;;;;;1.00;1.00;;;;;7.92;100.00;100961.31;4999545;28;45426;-84
2022/02/21 07:21:04;;;;;;;;;0.25;0.25;;;;;7.84;100.00;100959.94;4996958;28;45544;-83
2022/02/21 07:23:30;;;;;;;;;4.00;1.00;;;;;7.86;100.00;100950.63;4999474;27;45410;-79
2022/02/21 07:25:56;;;;;;;;;1.00;1.00;;;;;7.86;100.00;100958.34;5002682;27;45215;-86
2022/02/21 07:28:22;;;;;;;;;4.00;1.00;;;;;7.91;100.00;100967.25;5014635;27;45498;-84
2022/02/21 07:30:48;;;;;;;;;1.50;1.00;;;;;7.92;100.00;100956.16;5075784;27;45345;-80
2022/02/21 07:33:14;;;;;;;;;2.25;2.00;;;;;7.93;100.00;100957.94;4997271;28;45726;-88
2022/02/21 07:35:40;;;;;;;;;1.00;1.00;;;;;7.94;100.00;100962.25;4976100;28;47056;-81
2022/02/21 07:38:06;;;;;;;;;2.00;2.00;;;;;7.93;100.00;100945.03;4995498;27;45545;-81
2022/02/21 07:40:31;;;;;;;;;1.75;0.00;;;;;7.93;100.00;100931.25;5003412;28;45265;-93
2022/02/21 07:42:57;;;;;;;;;1.00;1.00;;;;;7.98;100.00;100937.56;4990075;28;45193;-90
2022/02/21 07:45:27;;;;;;;;;0.75;0.75;;;;;8.00;100.00;100952.31;4998901;27;46430;-86
2022/02/21 07:47:58;;;;;;;;;3.50;2.50;;;;;7.99;100.00;100940.22;4979128;28;45485;-80
2022/02/21 07:50:25;;;;;;;;;3.00;1.50;;;;;7.95;100.00;100932.22;4997039;27;45390;-85
2022/02/21 07:52:52;;;;;;;;;1.00;0.75;;;;;8.01;100.00;100946.34;4995412;27;45300;-85
2022/02/21 07:55:19;;;;;;;;;1.25;0.00;;;;;8.08;100.00;100938.97;4994954;27;46604;-86
2022/02/21 07:57:45;;;;;;;;;3.50;2.00;;;;;8.04;100.00;100932.75;4994550;27;45916;-86
2022/02/21 08:00:13;;;;;;;;;3.00;1.00;;;;;8.14;100.00;100945.34;4993901;28;45395;-83
2022/02/21 08:02:40;;;;;;;;;2.25;1.00;;;;;8.21;100.00;100933.69;4995436;28;45487;-85
2022/02/21 08:05:06;;;;;;;;;1.25;0.00;;;;;8.23;100.00;100975.03;4994795;28;45322;-85
2022/02/21 08:07:32;;;;;;;;;3.00;1.00;;;;;8.21;100.00;100959.50;4999512;27;45435;-85
2022/02/21 08:09:58;;;;;;;;;2.75;1.50;;;;;8.21;100.00;100942.31;4996476;27;45354;-83
2022/02/21 08:12:24;;;;;;;;;3.25;1.00;;;;;8.24;100.00;100948.44;4995067;28;45445;-84
2022/02/21 08:14:50;;;;;;;;;8.00;2.25;;;;;8.29;100.00;100963.38;4994953;28;45366;-83
2022/02/21 08:17:15;;;;;;;;;3.00;3.00;;;;;8.24;100.00;100928.72;4994412;28;45394;-85
2022/02/21 08:19:41;;;;;;;;;2.50;2.50;;;;;8.29;100.00;100931.56;4994109;28;45378;-84
2022/02/21 08:22:08;;;;;;;;;2.00;1.00;;;;;8.33;100.00;100949.88;4995070;27;45571;-84
2022/02/21 08:24:34;;;;;;;;;5.50;1.00;;;;;8.32;100.00;100962.66;4993965;28;45647;-84
2022/02/21 08:27:00;;;;;;;;;3.00;2.00;;;;;8.29;100.00;100960.81;4994605;28;45205;-84
2022/02/21 08:29:25;;;;;;;;;8.00;4.00;;;;;8.28;100.00;100948.69;4994716;28;45341;-82
2022/02/21 08:31:54;;;;;;;;;4.00;1.00;;;;;8.29;100.00;100947.91;4977754;28;45244;-83
2022/02/21 08:34:20;;;;;;;;;5.00;1.75;;;;;8.31;100.00;100940.28;4997584;28;45533;-83
2022/02/21 08:36:46;;;;;;;;;6.50;4.00;;;;;8.36;100.00;100944.88;4999501;28;45399;-83
2022/02/21 08:39:12;;;;;;;;;5.25;3.25;;;;;8.41;100.00;100947.72;4995517;28;45455;-85
2022/02/21 08:41:38;;;;;;;;;4.00;2.25;;;;;8.46;100.00;100941.09;5004630;27;45472;-85
2022/02/21 08:44:05;;;;;;;;;3.00;0.50;;;;;8.52;100.00;100969.88;4994124;28;46024;-82
2022/02/21 08:46:30;;;;;;;;;6.00;1.25;;;;;8.52;100.00;100961.25;4984814;28;45441;-83
2022/02/21 08:48:59;;;;;;;;;2.75;1.75;;;;;8.56;100.00;100950.28;4995226;28;45426;-85
2022/02/21 08:51:27;;;;;;;;;2.00;2.00;;;;;8.58;100.00;100945.22;4994036;28;45464;-83
2022/02/21 08:53:53;;;;;;;;;4.00;3.00;;;;;8.62;100.00;100966.09;4976658;28;47814;-82
2022/02/21 08:56:18;;;;;;;;;5.50;2.25;;;;;8.63;100.00;100967.88;4994998;28;45204;-82
2022/02/21 08:58:44;;;;;;;;;4.50;1.00;;;;;8.65;100.00;101011.84;4994788;28;45224;-83
2022/02/21 09:01:10;;;;;;;;;2.00;1.50;;;;;8.65;100.00;101005.00;4998741;28;45576;-86
2022/02/21 09:03:35;;;;;;;;;2.00;1.25;;;;;8.63;100.00;100982.50;4997587;28;45231;-86
2022/02/21 09:06:01;;;;;;;;;1.75;1.75;;;;;8.62;100.00;100984.16;4978212;28;45233;-81
2022/02/21 09:08:31;;;;;;;;;1.00;1.00;;;;;8.62;100.00;100971.25;4994896;28;45419;-79
2022/02/21 09:10:57;;;;;;;;;5.50;1.75;;;;;8.67;100.00;101010.22;4996166;27;45397;-80
2022/02/21 09:13:23;;;;;;;;;3.00;1.00;;;;;8.67;100.00;100987.00;4995855;28;46006;-81
2022/02/21 09:15:49;;;;;;;;;2.00;0.75;;;;;8.73;100.00;100999.34;4997362;28;45226;-89
2022/02/21 09:18:14;;;;;;;;;4.25;2.00;;;;;8.80;100.00;100988.59;4996882;28;45399;-89
2022/02/21 09:20:40;;;;;;;;;4.75;2.50;;;;;8.83;100.00;100991.31;4995405;28;45277;-89
2022/02/21 09:23:06;;;;;;;;;7.50;2.00;;;;;8.90;100.00;100977.97;4997237;28;46539;-87
2022/02/21 09:25:32;;;;;;;;;4.00;3.00;;;;;8.89;100.00;100994.25;4998534;27;45365;-90
2022/02/21 09:27:58;;;;;;;;;3.00;2.00;;;;;8.87;100.00;100941.63;4998215;28;45446;-88
2022/02/21 09:30:24;;;;;;;;;2.50;1.75;;;;;8.95;100.00;100937.75;5002360;28;45631;-88
2022/02/21 09:32:50;;;;;;;;;2.75;2.75;;;;;8.95;100.00;100944.63;4982346;28;48011;-88
2022/02/21 09:35:16;;;;;;;;;5.50;2.00;;;;;8.97;100.00;100941.31;4983669;28;45515;-88
2022/02/21 09:37:41;;;;;;;;;1.25;1.25;;;;;9.03;100.00;100960.50;4982565;28;45515;-88
2022/02/21 09:40:12;;;;;;;;;2.00;1.75;;;;;9.04;100.00;100954.53;5002732;28;45369;-88
2022/02/21 09:42:39;;;;;;;;;5.00;3.75;;;;;9.06;100.00;100940.03;4999896;28;46711;-89
2022/02/21 09:45:07;;;;;;;;;1.50;1.50;;;;;9.06;100.00;100959.00;4984037;28;45454;-87
2022/02/21 09:47:34;;;;;;;;;5.00;1.25;;;;;9.12;100.00;100945.53;4998249;27;45470;-87
2022/02/21 09:50:01;;;;;;;;;5.25;3.50;;;;;9.15;100.00;100945.66;4979802;28;45651;-90
2022/02/21 09:52:28;;;;;;;;;5.00;1.00;;;;;9.16;100.00;100982.75;4982304;28;47038;-89
2022/02/21 09:54:54;;;;;;;;;3.00;2.00;;;;;9.21;100.00;100989.94;4979384;28;45742;-85
2022/02/21 09:57:20;;;;;;;;;2.25;1.50;;;;;9.29;100.00;100972.22;4995476;28;45356;-87
2022/02/21 09:59:46;;;;;;;;;2.25;2.00;;;;;9.34;100.00;100973.38;4981212;28;45603;-85
2022/02/21 10:02:23;;;;;;;;;5.00;1.00;;;;;9.38;100.00;100995.06;4977363;28;47227;-81
2022/02/21 10:05:15;;;;;;;;;3.75;2.25;;;;;9.45;100.00;100990.31;4993342;28;45256;-80
2022/02/21 10:07:43;;;;;;;;;3.75;2.00;;;;;9.47;99.68;100981.75;4993395;28;45379;-81
2022/02/21 10:10:09;;;;;;;;;4.50;0.75;;;;;9.52;96.25;101035.47;4975836;28;45556;-81
2022/02/21 10:12:58;;;;;;;;;5.50;3.00;;;;;9.52;96.22;100993.22;4992853;28;45334;-81
2022/02/21 10:15:26;;;;;;;;;5.00;2.00;;;;;9.53;96.37;100985.56;4992961;28;45762;-81
2022/02/21 10:18:12;;;;;;;;;5.75;3.50;;;;;9.55;96.19;101003.72;4974899;28;45285;-84
2022/02/21 10:20:58;;;;;;;;;6.75;5.00;;;;;9.51;94.07;100988.84;4992785;28;45260;-84
2022/02/21 10:23:30;;;;;;;;;1.75;0.00;;;;;9.56;94.84;100987.41;4976769;28;45414;-84
2022/02/21 10:25:58;;;;;;;;;2.25;1.00;;;;;9.65;95.32;100998.22;4998722;28;45862;-82
2022/02/21 10:28:30;;;;;;;;;5.00;1.50;;;;;9.67;95.10;100986.25;4996374;28;45309;-79
2022/02/21 10:31:13;;;;;;;;;4.00;2.50;;;;;9.73;94.50;101038.28;4977794;28;45335;-80
2022/02/21 10:33:45;;;;;;;;;8.25;2.00;;;;;9.76;95.32;101019.47;4995578;27;46073;-81
2022/02/21 10:36:47;;;;;;;;;3.25;2.00;;;;;9.79;93.93;100985.09;4994496;28;45464;-78
2022/02/21 10:39:13;;;;;;;;;4.75;3.00;;;;;9.83;94.50;100979.25;4976960;28;45339;-80
2022/02/21 10:41:45;;;;;;;;;3.00;2.50;;;;;9.86;92.58;100980.34;4968105;28;45418;-79
2022/02/21 10:44:18;;;;;;;;;8.50;3.00;;;;;9.86;94.10;100988.09;4975994;28;46086;-76
2022/02/21 10:47:01;;;;;;;;;2.00;2.00;;;;;9.93;92.30;101003.91;4976093;28;45852;-76
2022/02/21 10:49:27;;;;;;;;;9.00;4.50;;;;;9.96;91.50;100985.97;4976518;28;45178;-79
2022/02/21 10:51:57;;;;;;;;;3.50;2.00;;;;;9.98;89.57;101044.72;4986842;28;45521;-80
2022/02/21 10:54:37;;;;;;;;;6.50;2.75;;;;;9.96;91.11;101035.97;4997641;28;46056;-81
2022/02/21 10:57:08;;;;;;;;;2.75;1.00;;;;;9.99;90.59;101012.00;4998496;28;45356;-84
2022/02/21 10:59:34;;;;;;;;;5.75;1.50;;;;;10.02;92.01;101018.19;4979505;28;45292;-88
2022/02/21 11:02:02;;;;;;;;;5.00;2.00;;;;;10.14;90.56;101004.09;4980288;28;45911;-87
2022/02/21 11:04:30;;;;;;;;;6.25;3.25;;;;;10.19;88.94;101013.88;4996273;27;45433;-82
2022/02/21 11:06:58;;;;;;;;;3.25;1.50;;;;;10.22;89.79;101028.66;4977085;28;45359;-78
2022/02/21 11:09:28;;;;;;;;;7.75;3.00;;;;;10.29;88.82;100998.78;4995362;28;45367;-78
2022/02/21 11:11:59;;;;;;;;;3.50;3.50;;;;;10.27;88.05;101006.47;4996245;28;45311;-82
2022/02/21 11:14:27;;;;;;;;;5.75;4.00;;;;;10.29;85.21;100997.06;4995781;28;46294;-86
2022/02/21 11:16:55;;;;;;;;;3.50;2.25;;;;;10.31;84.60;101011.00;4994575;28;45483;-85
2022/02/21 11:19:21;;;;;;;;;3.50;2.25;;;;;10.30;85.16;101005.75;4983326;27;45359;-84
2022/02/21 11:21:48;;;;;;;;;4.75;3.00;;;;;10.33;86.37;101016.22;4995175;27;45957;-80
2022/02/21 11:24:21;;;;;;;;;3.75;3.00;;;;;10.36;85.85;101008.63;4978243;28;47339;-80
2022/02/21 11:27:06;;;;;;;;;6.25;4.00;;;;;10.35;85.08;101015.50;4962010;28;45953;-77